Airfield :
LOGIN :

Register | Disclaimer

   EN    FR    IT 

 










Legend :    VFR   Marginal VFR   IFR   Intensive IFR   Very Intensive IFR
Visi :
Ceiling :
>= 8 km
>= 3000ft
5 to 8 km
1000 to 3000 ft
1500m to 5 km
500 to 1000 ft
800 to 1500m
200 to 500 ft
< 800m
< 200 ft
Symbols :   Thunderstorms  Fog  Heavy snow  Heavy precipitations  Wind > 20 kt
SIGMETs :     Misc.  Thunderstorms  Icing  Turbulence  Mountain Waves  Volcanic Ashes







- Airport Elevation : 1367 ft
- IATA code : FDH


EDNY - Friedrichshafen

CURRENT METAR :
  • 240120Z AUTO VRB02KT 9999 2500/ OVC060 03/02 Q1028

EXPIRED METARs :
  • 240050Z AUTO VRB01KT 3200 BR BKN056 OVC090 02/01 Q1028
  • 240020Z AUTO VRB01KT 5000 FEW057 OVC100 02/02 Q1028
  • 232350Z AUTO 00000KT 3500 BR NSC 01/01 Q1028
  • 232320Z AUTO VRB01KT 3500 BR FEW002 BKN098 BKN120 01/01 Q1028
  • 232250Z AUTO VRB02KT 3800 BR FEW002 SCT130 01/01 Q1028

TAF TAF EDNY
Valid from the 24 at 00:00 until the 25 at 00:00 UTC


232300Z 2400/2424 VRB03KT 9999 SCT030
PROB30
TEMPO 2400/2408 2000 BCFG
PROB30
TEMPO 2420/2424 2000 BCFG
No reported NOTAMs for that airfield.



MET'MAP, your aeronautical weather chart ! - Copyright ORBIFLY December 2007 - Disclaimer

ORBIFLY MET'MAP TEAM :

Programming & Development : Alexandra Zaïnal
Concept & Development : Baudouin d'Aumeries
Co-Development & Prog : Marc-Olivier Méhu
Technical & hardware support : Manuel Goepfert

Contact : metmap@orbifly.com




SOURCES & CREDITS :

   NOAA